Time;durP1;ratioP1;P1;durP2;ratioP2;P2;SDS_P1;SDS_P2;PMS_P1;PMS_P2;Temp;Humidity;BMP_temperature;BMP_pressure;BME280_temperature;BME280_humidity;BME280_pressure;Samples;Min_cycle;Max_cycle;Signal;HPM_P1;HPM_P2
2022/09/02 00:01:14;;;;;;;2.90;2.20;;;;;;;13.51;100.00;96425.38;5030167;28;105351;-62
2022/09/02 00:03:42;;;;;;;2.20;2.00;;;;;;;13.67;100.00;96429.63;5030754;28;102554;-62
2022/09/02 00:06:10;;;;;;;2.77;2.30;;;;;;;13.59;100.00;96424.81;5029465;28;101845;-62
2022/09/02 00:08:38;;;;;;;2.40;2.20;;;;;;;13.57;100.00;96427.75;5030188;28;106661;-62
2022/09/02 00:11:07;;;;;;;2.47;2.30;;;;;;;13.66;100.00;96425.34;5030617;28;102633;-63
2022/09/02 00:13:36;;;;;;;2.27;2.07;;;;;;;13.49;100.00;96422.16;5031028;27;102054;-62
2022/09/02 00:16:06;;;;;;;2.63;2.43;;;;;;;13.36;100.00;96414.69;5034101;28;102344;-62
2022/09/02 00:18:34;;;;;;;4.50;2.37;;;;;;;12.99;100.00;96412.25;5029972;28;101805;-62
2022/09/02 00:21:02;;;;;;;2.07;1.97;;;;;;;13.20;100.00;96413.06;5030984;27;105251;-62
2022/09/02 00:23:29;;;;;;;2.30;2.10;;;;;;;13.26;100.00;96410.13;5030340;28;103150;-62
2022/09/02 00:25:56;;;;;;;2.60;2.40;;;;;;;13.38;100.00;96401.84;5030968;28;101814;-62
2022/09/02 00:28:23;;;;;;;3.63;2.33;;;;;;;13.50;100.00;96408.53;5029525;28;105449;-63
2022/09/02 00:30:51;;;;;;;2.80;2.37;;;;;;;13.42;100.00;96405.59;5028812;28;105296;-63
2022/09/02 00:33:20;;;;;;;2.20;2.10;;;;;;;13.38;100.00;96413.34;5029637;28;101911;-62
2022/09/02 00:35:47;;;;;;;2.93;2.70;;;;;;;13.51;100.00;96407.44;5030848;28;102319;-62
2022/09/02 00:38:15;;;;;;;3.10;2.80;;;;;;;13.54;100.00;96411.47;5032211;28;105808;-62
2022/09/02 00:40:48;;;;;;;2.77;2.60;;;;;;;13.59;100.00;96412.28;5029248;28;105310;-62
2022/09/02 00:43:23;;;;;;;2.90;2.70;;;;;;;13.37;100.00;96406.41;5030357;27;103182;-62
2022/09/02 00:45:52;;;;;;;2.50;2.30;;;;;;;13.24;100.00;96406.91;5029441;28;101929;-63
2022/09/02 00:48:20;;;;;;;2.60;2.40;;;;;;;13.08;100.00;96407.19;5029949;27;102355;-63
2022/09/02 00:50:48;;;;;;;2.90;2.70;;;;;;;13.08;100.00;96402.63;5028759;28;105367;-62
2022/09/02 00:53:15;;;;;;;2.80;2.60;;;;;;;13.07;100.00;96390.34;5029250;28;102179;-62
2022/09/02 00:55:46;;;;;;;4.50;2.60;;;;;;;13.00;100.00;96397.81;5029152;28;105361;-62
2022/09/02 00:58:19;;;;;;;2.40;2.30;;;;;;;13.15;100.00;96399.69;5028626;28;105854;-62
2022/09/02 01:00:49;;;;;;;2.73;2.00;;;;;;;13.21;100.00;96401.31;5033833;27;101734;-62
2022/09/02 01:03:20;;;;;;;3.17;2.40;;;;;;;13.06;100.00;96403.94;5028428;28;105748;-62
2022/09/02 01:05:51;;;;;;;2.50;2.30;;;;;;;12.78;100.00;96397.22;5028682;28;101890;-62
2022/09/02 01:08:23;;;;;;;2.60;2.40;;;;;;;12.74;100.00;96395.31;5029059;28;105216;-62
2022/09/02 01:10:54;;;;;;;2.70;2.50;;;;;;;12.54;100.00;96397.94;5028646;28;103526;-62
2022/09/02 01:13:24;;;;;;;2.70;2.50;;;;;;;12.66;100.00;96401.19;5030044;28;101928;-62
2022/09/02 01:15:55;;;;;;;2.53;2.33;;;;;;;12.71;100.00;96406.53;5029036;28;105107;-62
2022/09/02 01:18:27;;;;;;;3.50;2.33;;;;;;;12.99;100.00;96404.22;5028350;28;105498;-62
2022/09/02 01:20:56;;;;;;;5.47;2.50;;;;;;;12.96;100.00;96410.09;5033857;27;101956;-62
2022/09/02 01:23:26;;;;;;;2.73;2.53;;;;;;;12.74;100.00;96406.00;5027797;28;105457;-62
2022/09/02 01:25:54;;;;;;;2.90;2.70;;;;;;;12.44;100.00;96392.56;5028959;28;101978;-62
2022/09/02 01:28:21;;;;;;;2.73;2.53;;;;;;;12.33;100.00;96409.59;5028710;28;105591;-62
2022/09/02 01:30:51;;;;;;;3.10;2.80;;;;;;;12.39;100.00;96400.56;5027990;28;105684;-62
2022/09/02 01:33:19;;;;;;;2.40;2.30;;;;;;;12.07;100.00;96395.34;5030111;28;101968;-62
2022/09/02 01:35:48;;;;;;;2.27;2.10;;;;;;;12.33;100.00;96398.94;5028600;28;105639;-62
2022/09/02 01:38:16;;;;;;;2.53;2.43;;;;;;;12.45;100.00;96405.66;5029406;27;103171;-62
2022/09/02 01:40:45;;;;;;;2.90;2.60;;;;;;;12.49;100.00;96404.03;5028819;28;101936;-62
2022/09/02 01:43:16;;;;;;;3.07;2.87;;;;;;;12.84;100.00;96393.50;5031073;28;104623;-62
2022/09/02 01:45:47;;;;;;;4.10;2.90;;;;;;;12.87;100.00;96392.94;5028672;28;101878;-62
2022/09/02 01:48:16;;;;;;;2.57;2.47;;;;;;;12.78;100.00;96391.06;5028708;28;104020;-62
2022/09/02 01:50:46;;;;;;;3.33;2.83;;;;;;;12.46;100.00;96385.09;5027874;28;105407;-63
2022/09/02 01:53:14;;;;;;;2.60;2.50;;;;;;;12.25;100.00;96389.56;5028332;28;102063;-62
2022/09/02 01:55:42;;;;;;;2.70;2.50;;;;;;;11.99;100.00;96384.38;5028129;28;105176;-62
2022/09/02 01:58:11;;;;;;;2.80;2.60;;;;;;;11.93;100.00;96372.88;5029287;28;103229;-62
2022/09/02 02:00:39;;;;;;;2.77;2.53;;;;;;;11.83;100.00;96377.38;5030430;27;102126;-62
2022/09/02 02:03:06;;;;;;;2.73;2.53;;;;;;;12.03;100.00;96378.28;5031964;28;105131;-63
2022/09/02 02:05:34;;;;;;;3.30;3.07;;;;;;;12.01;100.00;96374.25;5034201;28;105528;-62
2022/09/02 02:08:02;;;;;;;2.90;2.60;;;;;;;12.03;100.00;96377.47;5031775;28;105260;-62
2022/09/02 02:10:29;;;;;;;2.53;2.33;;;;;;;11.91;100.00;96368.88;5032621;28;103262;-62
2022/09/02 02:12:56;;;;;;;2.70;2.50;;;;;;;12.03;100.00;96375.59;5033152;27;101913;-62
2022/09/02 02:15:25;;;;;;;3.80;2.50;;;;;;;12.21;100.00;96383.13;5031825;28;105152;-62
2022/09/02 02:17:53;;;;;;;3.73;3.03;;;;;;;12.23;100.00;96377.56;5031160;28;105758;-62
2022/09/02 02:20:21;;;;;;;3.27;2.97;;;;;;;12.01;100.00;96375.06;5032638;28;101858;-62
2022/09/02 02:22:49;;;;;;;3.50;2.83;;;;;;;12.21;100.00;96379.69;5031552;28;104994;-62
2022/09/02 02:25:17;;;;;;;2.77;2.57;;;;;;;12.09;100.00;96373.75;5031011;28;105219;-62
2022/09/02 02:27:45;;;;;;;3.57;3.03;;;;;;;12.21;100.00;96379.69;5035187;28;101765;-62
2022/09/02 02:30:15;;;;;;;3.20;2.90;;;;;;;12.26;100.00;96375.16;5032316;27;102734;-62
2022/09/02 02:32:45;;;;;;;2.93;2.73;;;;;;;12.48;100.00;96377.66;5032781;27;101974;-62
2022/09/02 02:35:15;;;;;;;3.73;3.00;;;;;;;12.38;100.00;96378.41;5031396;28;104763;-62
2022/09/02 02:37:43;;;;;;;3.67;3.37;;;;;;;12.28;100.00;96385.56;5030659;28;105536;-62
2022/09/02 02:40:11;;;;;;;3.57;3.27;;;;;;;12.16;100.00;96371.66;5032899;27;101861;-62
2022/09/02 02:42:39;;;;;;;3.10;2.90;;;;;;;11.76;100.00;96371.44;5031382;28;105574;-62
2022/09/02 02:45:08;;;;;;;3.37;2.70;;;;;;;12.04;100.00;96374.53;5030383;28;105396;-62
2022/09/02 02:47:38;;;;;;;2.80;2.60;;;;;;;12.17;100.00;96375.94;5031396;28;101992;-62
2022/09/02 02:50:11;;;;;;;3.00;2.80;;;;;;;12.18;100.00;96373.00;5033908;28;104696;-62
2022/09/02 02:52:38;;;;;;;3.53;3.23;;;;;;;12.01;100.00;96368.94;5031183;28;101832;-62
2022/09/02 02:55:07;;;;;;;3.00;2.70;;;;;;;11.91;100.00;96371.53;5030941;28;105090;-62
2022/09/02 02:57:37;;;;;;;2.90;2.70;;;;;;;12.08;100.00;96369.47;5030592;28;105396;-62
2022/09/02 03:00:09;;;;;;;3.47;2.90;;;;;;;12.00;100.00;96368.13;5031311;28;102083;-62
2022/09/02 03:02:37;;;;;;;5.40;3.30;;;;;;;11.98;100.00;96366.78;5030672;28;105970;-62
2022/09/02 03:05:07;;;;;;;3.60;2.50;;;;;;;12.19;100.00;96369.28;5029794;28;105449;-62
2022/09/02 03:07:35;;;;;;;2.93;2.73;;;;;;;12.34;100.00;96363.19;5031057;28;101817;-62
2022/09/02 03:10:07;;;;;;;4.20;3.10;;;;;;;12.37;100.00;96370.69;5031067;28;105629;-62
2022/09/02 03:12:34;;;;;;;3.83;3.53;;;;;;;12.45;100.00;96376.31;5032631;28;105525;-63
2022/09/02 03:15:02;;;;;;;3.37;3.17;;;;;;;12.37;100.00;96368.03;5030891;28;105555;-62
2022/09/02 03:17:30;;;;;;;3.33;3.10;;;;;;;12.29;100.00;96365.84;5030180;28;105203;-62
2022/09/02 03:19:58;;;;;;;3.47;3.27;;;;;;;12.20;100.00;96359.41;5030797;28;101846;-62
2022/09/02 03:22:28;;;;;;;3.77;2.70;;;;;;;12.29;100.00;96357.84;5030740;28;103465;-62
2022/09/02 03:24:57;;;;;;;3.00;2.77;;;;;;;12.50;100.00;96359.53;5029716;28;105784;-62
2022/09/02 03:27:25;;;;;;;3.20;3.00;;;;;;;12.20;100.00;96351.41;5030616;28;101990;-62
2022/09/02 03:29:52;;;;;;;3.23;3.00;;;;;;;12.07;100.00;96359.88;5030808;28;105221;-63
2022/09/02 03:32:19;;;;;;;3.03;2.83;;;;;;;11.93;100.00;96351.56;5033339;28;105466;-62
2022/09/02 03:34:47;;;;;;;3.20;3.00;;;;;;;11.79;100.00;96352.28;5030259;28;105627;-63
2022/09/02 03:37:15;;;;;;;3.10;2.80;;;;;;;11.78;100.00;96353.34;5029781;28;105545;-63
2022/09/02 03:39:42;;;;;;;5.30;2.90;;;;;;;11.84;100.00;96353.09;5031542;27;101912;-62
2022/09/02 03:42:11;;;;;;;3.10;2.87;;;;;;;11.75;100.00;96349.34;5030483;28;105244;-62
2022/09/02 03:44:40;;;;;;;3.60;3.00;;;;;;;12.28;100.00;96345.59;5029825;28;105893;-62
2022/09/02 03:47:07;;;;;;;3.20;2.80;;;;;;;12.08;100.00;96354.31;5031460;28;101840;-63
2022/09/02 03:49:35;;;;;;;3.87;3.30;;;;;;;12.00;100.00;96357.44;5030258;28;104885;-62
2022/09/02 03:52:03;;;;;;;3.47;3.17;;;;;;;11.97;100.00;96355.31;5029731;28;105418;-62
2022/09/02 03:54:30;;;;;;;3.30;2.80;;;;;;;12.06;100.00;96350.28;5034716;27;101903;-62
2022/09/02 03:56:57;;;;;;;3.30;3.00;;;;;;;11.86;100.00;96347.53;5029786;28;104746;-62
2022/09/02 03:59:26;;;;;;;3.30;3.10;;;;;;;11.87;100.00;96349.13;5029995;28;101880;-62
2022/09/02 04:01:53;;;;;;;3.23;2.77;;;;;;;12.02;100.00;96346.53;5030011;28;104941;-62
2022/09/02 04:04:20;;;;;;;3.23;3.03;;;;;;;12.00;100.00;96349.47;5029277;28;105921;-62
2022/09/02 04:06:50;;;;;;;3.60;3.30;;;;;;;12.10;100.00;96352.16;5029428;28;101930;-62
2022/09/02 04:09:17;;;;;;;5.50;4.20;;;;;;;12.20;100.00;96340.75;5030010;28;105126;-62
2022/09/02 04:11:45;;;;;;;4.80;4.50;;;;;;;12.10;100.00;96340.72;5029372;28;106013;-62
2022/09/02 04:14:12;;;;;;;4.67;4.27;;;;;;;11.96;100.00;96340.41;5029922;28;101876;-62
2022/09/02 04:23:44;;;;;;;6.43;5.03;;;;;;;12.32;100.00;96339.44;5028464;27;104694;-62
2022/09/02 04:26:13;;;;;;;3.80;3.50;;;;;;;12.32;100.00;96342.13;5029076;28;105176;-62
2022/09/02 04:28:41;;;;;;;4.90;4.50;;;;;;;12.22;100.00;96338.63;5029595;28;101938;-62
2022/09/02 04:31:16;;;;;;;5.00;4.40;;;;;;;12.46;100.00;96350.44;5029625;28;105067;-62
2022/09/02 04:33:44;;;;;;;4.50;4.20;;;;;;;12.40;100.00;96351.47;5028941;28;105265;-62
2022/09/02 04:36:17;;;;;;;5.23;4.60;;;;;;;12.49;100.00;96347.25;5029435;28;102010;-62
2022/09/02 04:38:47;;;;;;;5.17;4.77;;;;;;;12.01;100.00;96343.09;5029399;28;105213;-62
2022/09/02 04:41:20;;;;;;;5.57;4.63;;;;;;;12.10;100.00;96338.84;5032318;28;105681;-62
2022/09/02 04:43:48;;;;;;;5.70;4.13;;;;;;;12.04;100.00;96341.78;5029345;28;105152;-62
2022/09/02 04:46:16;;;;;;;4.13;3.83;;;;;;;11.94;100.00;96345.16;5028530;28;105991;-62
2022/09/02 04:48:46;;;;;;;4.03;3.77;;;;;;;11.67;100.00;96346.38;5029484;28;101841;-62
2022/09/02 04:51:16;;;;;;;6.60;4.47;;;;;;;11.56;100.00;96344.69;5030354;28;102466;-62
2022/09/02 04:53:48;;;;;;;4.73;4.33;;;;;;;11.97;100.00;96352.66;5028464;28;105431;-62
2022/09/02 04:56:20;;;;;;;4.53;4.10;;;;;;;12.07;100.00;96352.72;5028967;28;101948;-62
2022/09/02 04:58:49;;;;;;;4.10;3.80;;;;;;;12.07;100.00;96354.56;5029274;28;105324;-62
2022/09/02 05:01:21;;;;;;;5.63;5.13;;;;;;;11.81;100.00;96352.81;5028392;28;105666;-62
2022/09/02 05:03:50;;;;;;;4.67;4.30;;;;;;;11.65;100.00;96353.78;5032678;28;101818;-62
2022/09/02 05:06:22;;;;;;;5.53;4.33;;;;;;;11.79;100.00;96352.28;5027715;28;105330;-62
2022/09/02 05:08:52;;;;;;;6.10;4.30;;;;;;;11.84;100.00;96355.00;5029175;28;101825;-62
2022/09/02 05:11:21;;;;;;;4.80;4.40;;;;;;;11.76;100.00;96352.78;5028850;28;106228;-62
2022/09/02 05:13:51;;;;;;;4.80;4.40;;;;;;;11.79;100.00;96354.97;5028511;28;104438;-62
2022/09/02 05:16:23;;;;;;;5.03;4.63;;;;;;;11.99;100.00;96355.06;5028721;28;101897;-62
2022/09/02 05:18:52;;;;;;;4.67;4.27;;;;;;;11.93;100.00;96353.44;5029094;28;104812;-62
2022/09/02 05:21:21;;;;;;;6.40;5.60;;;;;;;12.10;100.00;96346.06;5028291;28;105671;-62
2022/09/02 05:23:52;;;;;;;7.77;6.37;;;;;;;12.03;100.00;96348.13;5028597;28;101916;-62
2022/09/02 05:26:20;;;;;;;11.43;7.53;;;;;;;12.21;100.00;96342.38;5031643;28;104541;-62
2022/09/02 05:28:48;;;;;;;8.93;7.93;;;;;;;12.13;100.00;96340.19;5028814;28;102195;-62
2022/09/02 05:31:17;;;;;;;7.00;6.30;;;;;;;12.55;100.00;96351.53;5028536;28;105132;-62
2022/09/02 05:33:46;;;;;;;8.20;7.13;;;;;;;12.39;100.00;96347.22;5028099;28;105266;-62
2022/09/02 05:36:21;;;;;;;10.03;7.40;;;;;;;12.05;100.00;96348.69;5065686;27;101814;-62
2022/09/02 05:38:51;;;;;;;10.70;7.83;;;;;;;11.77;100.00;96351.75;5032461;28;103921;-62
2022/09/02 05:41:22;;;;;;;6.10;5.53;;;;;;;11.62;100.00;96354.34;5031691;28;106174;-62
2022/09/02 05:43:52;;;;;;;7.47;5.50;;;;;;;11.63;100.00;96361.25;5032390;28;101867;-62
2022/09/02 05:46:22;;;;;;;7.27;5.47;;;;;;;11.67;100.00;96363.13;5034952;28;105155;-62
2022/09/02 05:51:44;;;;;;;6.13;5.60;;;;;;;11.89;100.00;96363.00;5031816;28;105207;-62
2022/09/02 05:54:17;;;;;;;7.10;6.40;;;;;;;11.77;100.00;96359.75;5031352;28;105013;-62
2022/09/02 05:56:47;;;;;;;12.17;8.00;;;;;;;11.75;100.00;96360.00;5033571;27;101805;-68
2022/09/02 05:59:15;;;;;;;8.40;7.60;;;;;;;11.75;100.00;96361.84;5031992;28;104901;-61
2022/09/02 06:01:44;;;;;;;9.00;7.63;;;;;;;11.74;100.00;96362.91;5031038;28;105352;-60
2022/09/02 06:04:11;;;;;;;8.97;8.17;;;;;;;11.82;100.00;96359.78;5031889;28;101833;-60
2022/09/02 06:06:41;;;;;;;12.37;8.33;;;;;;;11.84;100.00;96357.66;5031590;28;104959;-60
2022/09/02 06:09:12;;;;;;;13.20;9.83;;;;;;;11.65;100.00;96359.94;5034725;28;105521;-60
2022/09/02 06:11:43;;;;;;;11.20;9.33;;;;;;;11.55;100.00;96364.38;5031757;28;105758;-61
2022/09/02 06:14:12;;;;;;;13.27;9.60;;;;;;;11.53;100.00;96361.16;5030814;28;105649;-60
2022/09/02 06:16:42;;;;;;;9.60;8.60;;;;;;;11.71;100.00;96360.75;5031652;28;101928;-60
2022/09/02 06:19:18;;;;;;;11.47;9.10;;;;;;;11.78;100.00;96359.47;5031733;28;104729;-61
2022/09/02 06:21:45;;;;;;;10.23;9.13;;;;;;;11.74;100.00;96363.72;5031086;28;105552;-60
2022/09/02 06:24:13;;;;;;;12.67;9.60;;;;;;;11.84;100.00;96355.78;5031614;28;101712;-60
2022/09/02 06:26:43;;;;;;;12.53;10.57;;;;;;;12.00;100.00;96359.34;5031442;28;104809;-60
2022/09/02 06:29:11;;;;;;;11.17;9.97;;;;;;;12.01;100.00;96355.59;5029763;28;105720;-61
2022/09/02 06:31:42;;;;;;;10.97;9.90;;;;;;;12.09;100.00;96352.41;5034264;28;101931;-61
2022/09/02 06:34:13;;;;;;;11.53;9.60;;;;;;;12.13;100.00;96350.84;5030979;28;105542;-60
2022/09/02 06:36:43;;;;;;;12.50;10.47;;;;;;;12.35;100.00;96348.78;5031383;28;101828;-61
2022/09/02 06:39:15;;;;;;;11.40;10.20;;;;;;;12.58;100.00;96356.31;5013819;28;105170;-60
2022/09/02 06:41:47;;;;;;;10.77;9.67;;;;;;;12.81;100.00;96355.84;5029780;28;105642;-60
2022/09/02 06:44:17;;;;;;;10.13;9.07;;;;;;;12.87;100.00;96355.59;5031105;28;102071;-60
2022/09/02 06:46:48;;;;;;;10.63;9.63;;;;;;;13.03;100.00;96351.88;5030014;27;105403;-60
2022/09/02 06:49:16;;;;;;;9.90;9.03;;;;;;;13.33;100.00;96351.09;5030639;28;105485;-60
2022/09/02 06:51:49;;;;;;;10.50;9.20;;;;;;;13.72;100.00;96349.44;5031255;28;101791;-60
2022/09/02 06:54:19;;;;;;;9.57;8.73;;;;;;;13.78;100.00;96348.34;5033500;28;105177;-60
2022/09/02 06:56:51;;;;;;;10.53;8.90;;;;;;;13.88;100.00;96348.31;5030820;28;102088;-60
2022/09/02 06:59:23;;;;;;;8.93;8.13;;;;;;;13.95;100.00;96349.66;5031077;28;104880;-61
2022/09/02 07:01:57;;;;;;;9.83;8.60;;;;;;;14.10;100.00;96340.78;5030362;28;105197;-61
2022/09/02 07:07:12;;;;;;;8.60;7.90;;;;;;;14.44;100.00;96347.09;5030943;28;105252;-61
2022/09/02 07:09:45;;;;;;;8.50;7.70;;;;;;;14.70;100.00;96343.19;5030361;28;105091;-61
2022/09/02 07:12:18;;;;;;;7.93;7.27;;;;;;;14.90;100.00;96327.00;5030833;28;102073;-61
2022/09/02 07:14:54;;;;;;;7.73;7.03;;;;;;;14.62;100.00;96327.72;5030919;28;105034;-60
2022/09/02 07:17:27;;;;;;;8.43;7.10;;;;;;;14.55;100.00;96336.03;5033629;28;105552;-61
2022/09/02 07:20:00;;;;;;;7.70;7.10;;;;;;;14.90;100.00;96332.34;5030475;28;104426;-61
2022/09/02 07:22:30;;;;;;;7.27;6.73;;;;;;;15.35;100.00;96332.03;5030001;28;104800;-61
2022/09/02 07:25:01;;;;;;;8.33;7.63;;;;;;;15.59;100.00;96331.00;5032040;27;101914;-61
2022/09/02 07:27:30;;;;;;;7.30;6.53;;;;;;;15.51;100.00;96333.50;5030481;28;105880;-60
2022/09/02 07:29:58;;;;;;;6.50;5.97;;;;;;;14.96;100.00;96329.38;5029971;28;105030;-60
2022/09/02 07:32:27;;;;;;;9.80;6.30;;;;;;;14.39;100.00;96334.53;5031729;27;102157;-61
2022/09/02 07:34:55;;;;;;;6.90;6.23;;;;;;;14.57;100.00;96341.13;5030584;28;105126;-60
2022/09/02 07:37:22;;;;;;;10.63;6.53;;;;;;;14.77;100.00;96333.78;5029750;28;105574;-60
2022/09/02 07:39:50;;;;;;;11.43;6.60;;;;;;;14.59;100.00;96333.63;5033998;28;102167;-60
2022/09/02 07:42:18;;;;;;;6.63;6.13;;;;;;;14.63;100.00;96332.81;5029459;28;105888;-60
2022/09/02 07:44:47;;;;;;;8.83;6.67;;;;;;;14.85;100.00;96327.84;5030617;28;102011;-60
2022/09/02 07:47:15;;;;;;;7.00;6.40;;;;;;;14.54;100.00;96330.97;5030137;28;105404;-60
2022/09/02 07:49:49;;;;;;;6.20;5.57;;;;;;;14.94;100.00;96331.50;5029394;28;105471;-60
2022/09/02 07:52:17;;;;;;;5.77;5.27;;;;;;;15.51;100.00;96325.44;5030514;28;101924;-61
2022/09/02 07:54:45;;;;;;;6.63;6.03;;;;;;;15.68;100.00;96320.44;5029871;28;105279;-61
2022/09/02 07:57:16;;;;;;;6.10;5.60;;;;;;;15.47;100.00;96319.06;5029738;27;106367;-61
2022/09/02 07:59:45;;;;;;;5.87;5.20;;;;;;;15.81;100.00;96315.22;5033586;28;101860;-61
2022/09/02 08:02:17;;;;;;;5.50;5.03;;;;;;;15.86;100.00;96319.75;5029712;28;105359;-61
2022/09/02 08:04:45;;;;;;;4.80;4.47;;;;;;;15.63;100.00;96320.50;5030045;28;101843;-62
2022/09/02 08:07:15;;;;;;;5.10;4.70;;;;;;;15.51;100.00;96328.13;5030092;28;104820;-61
2022/09/02 08:09:42;;;;;;;5.07;4.67;;;;;;;15.59;100.00;96328.31;5029363;28;106152;-61
2022/09/02 08:12:09;;;;;;;5.53;4.80;;;;;;;15.43;100.00;96315.34;5030066;28;101966;-61
2022/09/02 08:14:37;;;;;;;4.97;4.60;;;;;;;15.63;100.00;96317.81;5031609;27;102290;-61
2022/09/02 08:17:07;;;;;;;6.03;4.93;;;;;;;15.89;100.00;96316.47;5029216;28;105640;-61
2022/09/02 08:19:43;;;;;;;5.00;4.60;;;;;;;15.76;100.00;96317.94;5030009;28;101907;-61
2022/09/02 08:22:10;;;;;;;4.40;4.00;;;;;;;16.18;100.00;96317.22;5034258;28;102883;-61
2022/09/02 08:24:37;;;;;;;4.30;3.90;;;;;;;16.38;100.00;96316.97;5031030;28;101998;-61
2022/09/02 08:27:06;;;;;;;3.77;3.57;;;;;;;16.68;100.00;96314.69;5029717;28;106500;-61
2022/09/02 08:29:34;;;;;;;4.00;3.70;;;;;;;17.08;100.00;96310.59;5030862;28;102545;-61
2022/09/02 08:32:02;;;;;;;4.20;3.83;;;;;;;17.76;100.00;96311.63;5029883;28;101997;-61
2022/09/02 08:34:28;;;;;;;4.17;3.40;;;;;;;17.89;100.00;96313.53;5029725;28;105665;-61
2022/09/02 08:37:18;;;;;;;2.60;2.40;;;;;;;18.43;100.00;96308.16;5028984;28;105589;-61
2022/09/02 08:39:45;;;;;;;2.80;2.60;;;;;;;18.60;100.00;96308.34;5030532;27;101785;-61
2022/09/02 08:42:21;;;;;;;3.00;2.73;;;;;;;18.40;100.00;96306.06;5029616;28;105206;-61
2022/09/02 08:44:53;;;;;;;3.40;2.70;;;;;;;18.52;100.00;96296.38;5034123;27;102534;-61
2022/09/02 08:47:30;;;;;;;2.90;2.60;;;;;;;18.61;100.00;96299.97;5031184;28;102836;-61
2022/09/02 08:50:03;;;;;;;2.43;2.33;;;;;;;18.40;100.00;96292.59;5030441;28;102665;-61
2022/09/02 08:52:39;;;;;;;2.70;2.50;;;;;;;18.86;100.00;96296.69;5029200;28;101889;-61
2022/09/02 08:55:10;;;;;;;2.37;2.23;;;;;;;19.08;100.00;96293.22;5029400;28;105431;-61
2022/09/02 08:57:37;;;;;;;2.70;2.50;;;;;;;19.34;100.00;96294.22;5030448;28;102641;-62
2022/09/02 09:00:05;;;;;;;2.50;2.40;;;;;;;19.58;100.00;96294.69;5031644;27;101910;-62
2022/09/02 09:02:41;;;;;;;2.50;2.30;;;;;;;19.31;100.00;96292.94;5030548;27;102271;-62
2022/09/02 09:05:22;;;;;;;3.27;2.40;;;;;;;19.42;100.00;96280.81;5028473;28;105448;-62
2022/09/02 09:08:03;;;;;;;2.60;2.23;;;;;;;19.80;100.00;96284.66;5034136;27;102049;-61
2022/09/02 09:10:39;;;;;;;2.20;2.00;;;;;;;20.07;100.00;96284.47;5027627;27;105478;-62
2022/09/02 09:13:32;;;;;;;2.80;1.90;;;;;;;20.44;100.00;96283.94;5030692;28;101684;-62
2022/09/02 09:16:18;;;;;;;3.00;2.07;;;;;;;20.60;100.00;96289.69;5028301;28;103129;-61
2022/09/02 09:19:00;;;;;;;2.10;1.90;;;;;;;20.31;100.00;96281.34;5030015;27;104694;-62
2022/09/02 09:21:28;;;;;;;4.33;1.70;;;;;;;20.44;100.00;96277.75;5030509;28;102075;-62
2022/09/02 09:24:00;;;;;;;2.07;1.87;;;;;;;20.92;100.00;96281.94;5030402;28;102982;-62
2022/09/02 09:26:35;;;;;;;2.10;1.70;;;;;;;20.77;100.00;96276.97;5029988;27;102648;-62
2022/09/02 09:29:05;;;;;;;3.07;1.70;;;;;;;20.97;100.00;96267.47;5029847;27;102132;-62
2022/09/02 09:31:34;;;;;;;2.63;1.70;;;;;;;21.19;100.00;96268.09;5053635;27;101725;-62
2022/09/02 09:34:04;;;;;;;1.97;1.73;;;;;;;21.14;100.00;96270.19;5050568;27;101864;-62
2022/09/02 09:36:50;;;;;;;1.87;1.63;;;;;;;21.14;100.00;96264.78;5049077;27;106144;-62
2022/09/02 09:39:25;;;;;;;1.70;1.60;;;;;;;20.75;100.00;96263.00;5050243;27;102770;-62
2022/09/02 09:41:54;;;;;;;1.90;1.80;;;;;;;21.16;100.00;96262.53;5034680;27;101805;-62
2022/09/02 09:44:43;;;;;;;2.73;1.73;;;;;;;21.50;100.00;96268.69;5046094;27;105148;-62
2022/09/02 09:47:26;;;;;;;2.43;2.03;;;;;;;20.91;100.00;96266.03;5048425;27;105778;-62
2022/09/02 09:50:12;;;;;;;1.70;1.60;;;;;;;21.45;100.00;96262.66;5041452;27;101953;-62
2022/09/02 09:52:39;;;;;;;2.00;1.90;;;;;;;21.65;100.00;96264.66;5031940;27;102726;-62
2022/09/02 09:55:15;;;;;;;2.03;1.67;;;;;;;21.55;100.00;96265.00;5051307;27;102061;-62
2022/09/02 09:57:44;;;;;;;1.93;1.80;;;;;;;22.02;100.00;96258.50;5050582;27;102247;-62
2022/09/02 10:00:18;;;;;;;1.77;1.67;;;;;;;21.76;100.00;96258.63;5049591;27;103119;-62
2022/09/02 10:02:48;;;;;;;3.03;1.77;;;;;;;22.19;100.00;96259.19;5050532;27;101782;-62
2022/09/02 10:05:29;;;;;;;2.07;1.80;;;;;;;22.49;100.00;96254.59;5048239;27;105301;-62
2022/09/02 10:07:59;;;;;;;2.50;1.80;;;;;;;22.50;100.00;96251.56;5044950;27;103081;-62
2022/09/02 10:10:29;;;;;;;1.97;1.87;;;;;;;22.38;100.00;96250.66;5028422;28;101982;-62
2022/09/02 10:12:59;;;;;;;1.70;1.60;;;;;;;22.56;100.00;96252.97;5028768;27;105104;-61
2022/09/02 10:16:01;;;;;;;1.60;1.50;;;;;;;22.63;100.00;96249.75;5032622;28;104286;-61
2022/09/02 10:18:35;;;;;;;2.87;1.50;;;;;;;22.78;100.00;96251.88;5008322;28;104940;-61
2022/09/02 10:21:13;;;;;;;1.47;1.33;;;;;;;22.91;100.00;96254.31;5010056;28;103232;-61
2022/09/02 10:23:50;;;;;;;2.33;1.50;;;;;;;23.16;100.00;96245.16;5013100;28;101759;-62
2022/09/02 10:26:36;;;;;;;1.60;1.50;;;;;;;22.92;100.00;96249.66;5011677;28;105238;-62
2022/09/02 10:29:43;;;;;;;1.50;1.40;;;;;;;23.15;98.96;96246.28;5012640;28;102810;-61
2022/09/02 10:32:25;;;;;;;1.20;1.20;;;;;;;23.62;97.92;96235.94;4954243;28;101876;-61
2022/09/02 10:35:03;;;;;;;2.27;1.60;;;;;;;23.22;100.00;96243.84;4987030;28;104832;-61
2022/09/02 10:38:09;;;;;;;1.60;1.50;;;;;;;23.27;100.00;96234.72;4970219;28;102781;-61
2022/09/02 10:40:45;;;;;;;2.90;1.60;;;;;;;23.61;100.00;96234.34;4957838;28;101931;-61
2022/09/02 10:43:28;;;;;;;1.80;1.20;;;;;;;23.71;97.12;96228.50;4994373;28;106722;-61
2022/09/02 10:46:09;;;;;;;1.70;1.23;;;;;;;23.73;91.34;96227.03;4973893;28;101838;-61
2022/09/02 10:49:05;;;;;;;2.73;1.30;;;;;;;23.64;88.93;96222.84;4990703;28;101886;-62
2022/09/02 10:51:42;;;;;;;1.80;1.70;;;;;;;23.66;91.64;96215.13;5009315;28;102669;-62
2022/09/02 10:54:25;;;;;;;1.70;1.53;;;;;;;23.87;91.28;96218.56;4974350;28;102016;-61
2022/09/02 10:57:05;;;;;;;1.43;1.40;;;;;;;23.98;95.64;96214.28;4970722;28;102539;-62
2022/09/02 10:59:39;;;;;;;2.40;1.73;;;;;;;23.58;97.28;96214.09;5005850;28;102664;-61
2022/09/02 11:02:15;;;;;;;2.27;1.40;;;;;;;23.07;91.62;96211.09;4995667;27;101935;-62
2022/09/02 11:04:49;;;;;;;2.50;1.67;;;;;;;23.67;92.22;96217.50;5015297;28;102288;-63
2022/09/02 11:07:21;;;;;;;3.33;1.90;;;;;;;23.71;91.36;96206.75;5014722;27;101752;-62
2022/09/02 11:09:53;;;;;;;2.63;1.77;;;;;;;24.08;96.43;96208.41;5052669;27;102324;-62
2022/09/02 11:12:26;;;;;;;1.70;1.60;;;;;;;24.02;93.83;96196.97;5050202;27;102584;-62
2022/09/02 11:15:04;;;;;;;2.07;1.63;;;;;;;24.03;96.40;96205.91;5031352;28;102076;-62
2022/09/02 11:21:04;;;;;;;2.23;1.80;;;;;;;24.69;93.10;96207.22;5031538;27;105300;-61
2022/09/02 11:23:40;;;;;;;2.63;1.27;;;;;;;24.11;84.58;96196.84;5032015;27;101883;-62
2022/09/02 11:26:17;;;;;;;1.87;1.77;;;;;;;24.09;78.89;96204.56;5032654;28;102375;-61
2022/09/02 11:28:52;;;;;;;1.30;1.20;;;;;;;24.45;91.33;96197.16;5013721;28;106033;-61
2022/09/02 11:31:30;;;;;;;1.93;1.60;;;;;;;24.46;83.46;96200.66;5026811;27;105349;-62
2022/09/02 11:34:03;;;;;;;2.17;1.40;;;;;;;24.81;71.63;96193.56;5050704;27;102526;-62
2022/09/02 11:36:31;;;;;;;2.23;1.30;;;;;;;25.19;74.00;96194.69;5050830;27;101852;-61
2022/09/02 11:39:04;;;;;;;4.00;1.30;;;;;;;25.38;83.65;96196.75;5051218;27;104085;-62
2022/09/02 11:41:47;;;;;;;1.10;1.10;;;;;;;25.02;68.67;96177.84;5050246;27;103344;-61
2022/09/02 11:44:43;;;;;;;1.40;1.30;;;;;;;25.18;73.04;96195.03;5010621;28;101739;-61
2022/09/02 11:47:40;;;;;;;2.03;1.37;;;;;;;25.21;68.92;96192.38;5011861;28;102357;-61
2022/09/02 11:50:45;;;;;;;1.60;1.10;;;;;;;25.44;62.04;96193.41;5016427;27;105296;-62
2022/09/02 11:53:20;;;;;;;0.80;0.80;;;;;;;25.24;54.58;96190.91;5034148;27;101977;-61